sensor_id;sensor_type;location;lat;lon;timestamp;P1;durP1;ratioP1;P2;durP2;ratioP2
10059;SDS011;5069;49.306;8.636;2022-07-05T00:01:32;5.80;;;1.70;;
10059;SDS011;5069;49.306;8.636;2022-07-05T00:04:34;3.77;;;1.50;;
10059;SDS011;5069;49.306;8.636;2022-07-05T00:07:35;2.87;;;1.30;;
10059;SDS011;5069;49.306;8.636;2022-07-05T00:10:37;4.60;;;1.30;;
10059;SDS011;5069;49.306;8.636;2022-07-05T00:13:39;2.53;;;1.27;;
10059;SDS011;5069;49.306;8.636;2022-07-05T00:16:40;2.97;;;1.30;;
10059;SDS011;5069;49.306;8.636;2022-07-05T00:19:42;2.50;;;1.43;;
10059;SDS011;5069;49.306;8.636;2022-07-05T00:22:43;2.13;;;1.20;;
10059;SDS011;5069;49.306;8.636;2022-07-05T00:25:45;3.70;;;1.50;;
10059;SDS011;5069;49.306;8.636;2022-07-05T00:28:46;5.20;;;1.50;;
10059;SDS011;5069;49.306;8.636;2022-07-05T00:31:48;2.73;;;1.30;;
10059;SDS011;5069;49.306;8.636;2022-07-05T00:34:50;2.13;;;1.33;;
10059;SDS011;5069;49.306;8.636;2022-07-05T00:37:52;1.83;;;1.30;;
10059;SDS011;5069;49.306;8.636;2022-07-05T00:40:54;1.70;;;1.50;;
10059;SDS011;5069;49.306;8.636;2022-07-05T00:43:57;4.23;;;1.50;;
10059;SDS011;5069;49.306;8.636;2022-07-05T00:47:01;5.67;;;1.17;;
10059;SDS011;5069;49.306;8.636;2022-07-05T00:50:04;3.50;;;1.47;;
10059;SDS011;5069;49.306;8.636;2022-07-05T00:53:06;3.07;;;1.47;;
10059;SDS011;5069;49.306;8.636;2022-07-05T00:56:07;4.80;;;1.50;;
10059;SDS011;5069;49.306;8.636;2022-07-05T00:59:09;4.17;;;1.67;;
10059;SDS011;5069;49.306;8.636;2022-07-05T01:02:10;4.20;;;1.53;;
10059;SDS011;5069;49.306;8.636;2022-07-05T01:05:19;4.07;;;1.70;;
10059;SDS011;5069;49.306;8.636;2022-07-05T01:08:21;2.83;;;1.27;;
10059;SDS011;5069;49.306;8.636;2022-07-05T01:11:25;8.90;;;1.87;;
10059;SDS011;5069;49.306;8.636;2022-07-05T01:14:27;4.80;;;1.67;;
10059;SDS011;5069;49.306;8.636;2022-07-05T01:17:28;3.40;;;1.80;;
10059;SDS011;5069;49.306;8.636;2022-07-05T01:20:30;3.57;;;1.57;;
10059;SDS011;5069;49.306;8.636;2022-07-05T01:23:32;5.70;;;1.90;;
10059;SDS011;5069;49.306;8.636;2022-07-05T01:26:34;4.07;;;1.80;;
10059;SDS011;5069;49.306;8.636;2022-07-05T01:29:36;4.00;;;1.80;;
10059;SDS011;5069;49.306;8.636;2022-07-05T01:32:37;5.17;;;1.70;;
10059;SDS011;5069;49.306;8.636;2022-07-05T01:35:39;7.33;;;1.80;;
10059;SDS011;5069;49.306;8.636;2022-07-05T01:38:41;3.07;;;1.70;;
10059;SDS011;5069;49.306;8.636;2022-07-05T01:41:43;5.03;;;1.53;;
10059;SDS011;5069;49.306;8.636;2022-07-05T01:44:44;3.07;;;1.80;;
10059;SDS011;5069;49.306;8.636;2022-07-05T01:47:46;5.40;;;2.00;;
10059;SDS011;5069;49.306;8.636;2022-07-05T01:51:52;3.13;;;1.60;;
10059;SDS011;5069;49.306;8.636;2022-07-05T01:54:27;4.57;;;1.57;;
10059;SDS011;5069;49.306;8.636;2022-07-05T01:57:30;2.73;;;1.47;;
10059;SDS011;5069;49.306;8.636;2022-07-05T02:00:40;5.77;;;1.53;;
10059;SDS011;5069;49.306;8.636;2022-07-05T02:03:50;2.33;;;1.60;;
10059;SDS011;5069;49.306;8.636;2022-07-05T02:06:58;3.70;;;1.33;;
10059;SDS011;5069;49.306;8.636;2022-07-05T02:10:00;3.03;;;1.70;;
10059;SDS011;5069;49.306;8.636;2022-07-05T02:13:02;4.83;;;1.70;;
10059;SDS011;5069;49.306;8.636;2022-07-05T02:16:06;2.47;;;1.60;;
10059;SDS011;5069;49.306;8.636;2022-07-05T02:19:08;2.80;;;1.73;;
10059;SDS011;5069;49.306;8.636;2022-07-05T02:22:13;4.07;;;1.50;;
10059;SDS011;5069;49.306;8.636;2022-07-05T02:25:14;2.27;;;1.83;;
10059;SDS011;5069;49.306;8.636;2022-07-05T02:28:17;5.60;;;1.70;;
10059;SDS011;5069;49.306;8.636;2022-07-05T02:31:22;4.60;;;1.60;;
10059;SDS011;5069;49.306;8.636;2022-07-05T02:34:26;3.60;;;1.80;;
10059;SDS011;5069;49.306;8.636;2022-07-05T02:37:29;3.50;;;1.80;;
10059;SDS011;5069;49.306;8.636;2022-07-05T02:40:31;3.97;;;1.60;;
10059;SDS011;5069;49.306;8.636;2022-07-05T02:43:34;2.43;;;2.00;;
10059;SDS011;5069;49.306;8.636;2022-07-05T02:46:38;3.30;;;1.73;;
10059;SDS011;5069;49.306;8.636;2022-07-05T02:49:40;3.80;;;1.77;;
10059;SDS011;5069;49.306;8.636;2022-07-05T02:52:42;3.37;;;1.90;;
10059;SDS011;5069;49.306;8.636;2022-07-05T02:55:45;5.20;;;1.97;;
10059;SDS011;5069;49.306;8.636;2022-07-05T02:58:47;2.70;;;1.93;;
10059;SDS011;5069;49.306;8.636;2022-07-05T03:01:49;2.87;;;1.70;;
10059;SDS011;5069;49.306;8.636;2022-07-05T03:04:52;4.17;;;1.70;;
10059;SDS011;5069;49.306;8.636;2022-07-05T03:07:54;4.07;;;2.10;;
10059;SDS011;5069;49.306;8.636;2022-07-05T03:10:57;2.83;;;1.93;;
10059;SDS011;5069;49.306;8.636;2022-07-05T03:14:00;2.90;;;1.67;;
10059;SDS011;5069;49.306;8.636;2022-07-05T03:17:01;2.60;;;1.97;;
10059;SDS011;5069;49.306;8.636;2022-07-05T03:20:03;2.53;;;2.00;;
10059;SDS011;5069;49.306;8.636;2022-07-05T03:23:06;4.43;;;1.90;;
10059;SDS011;5069;49.306;8.636;2022-07-05T03:26:16;6.40;;;2.20;;
10059;SDS011;5069;49.306;8.636;2022-07-05T03:29:20;4.60;;;2.30;;
10059;SDS011;5069;49.306;8.636;2022-07-05T03:32:22;3.17;;;2.13;;
10059;SDS011;5069;49.306;8.636;2022-07-05T03:35:26;6.03;;;2.00;;
10059;SDS011;5069;49.306;8.636;2022-07-05T03:38:30;5.40;;;2.20;;
10059;SDS011;5069;49.306;8.636;2022-07-05T03:41:32;4.77;;;2.00;;
10059;SDS011;5069;49.306;8.636;2022-07-05T03:44:35;4.73;;;1.97;;
10059;SDS011;5069;49.306;8.636;2022-07-05T03:47:38;2.70;;;1.97;;
10059;SDS011;5069;49.306;8.636;2022-07-05T03:50:43;4.23;;;2.20;;
10059;SDS011;5069;49.306;8.636;2022-07-05T03:53:45;4.43;;;2.00;;
10059;SDS011;5069;49.306;8.636;2022-07-05T03:56:47;5.67;;;2.30;;
10059;SDS011;5069;49.306;8.636;2022-07-05T03:59:50;7.03;;;2.20;;
10059;SDS011;5069;49.306;8.636;2022-07-05T04:02:53;4.00;;;2.30;;
10059;SDS011;5069;49.306;8.636;2022-07-05T04:05:56;5.13;;;1.87;;
10059;SDS011;5069;49.306;8.636;2022-07-05T04:08:58;4.67;;;1.97;;
10059;SDS011;5069;49.306;8.636;2022-07-05T04:12:00;3.77;;;2.00;;
10059;SDS011;5069;49.306;8.636;2022-07-05T04:15:03;5.27;;;2.20;;
10059;SDS011;5069;49.306;8.636;2022-07-05T04:18:05;4.70;;;2.20;;
10059;SDS011;5069;49.306;8.636;2022-07-05T04:21:10;2.40;;;2.03;;
10059;SDS011;5069;49.306;8.636;2022-07-05T04:24:12;6.73;;;2.77;;
10059;SDS011;5069;49.306;8.636;2022-07-05T04:27:14;2.43;;;2.23;;
10059;SDS011;5069;49.306;8.636;2022-07-05T04:30:17;5.03;;;2.17;;
10059;SDS011;5069;49.306;8.636;2022-07-05T04:33:20;2.97;;;2.10;;
10059;SDS011;5069;49.306;8.636;2022-07-05T04:36:24;4.00;;;2.37;;
10059;SDS011;5069;49.306;8.636;2022-07-05T04:39:29;2.27;;;2.00;;
10059;SDS011;5069;49.306;8.636;2022-07-05T04:42:37;2.47;;;2.00;;
10059;SDS011;5069;49.306;8.636;2022-07-05T04:45:40;9.07;;;2.87;;
10059;SDS011;5069;49.306;8.636;2022-07-05T04:48:43;5.43;;;2.00;;
10059;SDS011;5069;49.306;8.636;2022-07-05T04:51:46;6.20;;;2.47;;
10059;SDS011;5069;49.306;8.636;2022-07-05T04:54:48;5.33;;;2.33;;
10059;SDS011;5069;49.306;8.636;2022-07-05T04:57:50;6.60;;;2.27;;
10059;SDS011;5069;49.306;8.636;2022-07-05T05:00:51;9.33;;;2.50;;
10059;SDS011;5069;49.306;8.636;2022-07-05T05:03:53;9.73;;;2.60;;
10059;SDS011;5069;49.306;8.636;2022-07-05T05:06:54;4.83;;;2.53;;
10059;SDS011;5069;49.306;8.636;2022-07-05T05:09:56;4.20;;;2.20;;
10059;SDS011;5069;49.306;8.636;2022-07-05T05:12:57;5.43;;;2.30;;
10059;SDS011;5069;49.306;8.636;2022-07-05T05:15:59;9.40;;;2.50;;
10059;SDS011;5069;49.306;8.636;2022-07-05T05:19:02;7.00;;;2.40;;
10059;SDS011;5069;49.306;8.636;2022-07-05T05:22:03;11.73;;;2.37;;
10059;SDS011;5069;49.306;8.636;2022-07-05T05:25:05;8.07;;;2.50;;
10059;SDS011;5069;49.306;8.636;2022-07-05T05:28:07;5.73;;;2.77;;
10059;SDS011;5069;49.306;8.636;2022-07-05T05:31:08;4.37;;;2.50;;
10059;SDS011;5069;49.306;8.636;2022-07-05T05:34:10;7.33;;;2.57;;
10059;SDS011;5069;49.306;8.636;2022-07-05T05:37:12;9.10;;;2.67;;
10059;SDS011;5069;49.306;8.636;2022-07-05T05:40:13;8.30;;;2.80;;
10059;SDS011;5069;49.306;8.636;2022-07-05T05:43:15;4.83;;;2.50;;
10059;SDS011;5069;49.306;8.636;2022-07-05T05:46:17;6.30;;;2.53;;
10059;SDS011;5069;49.306;8.636;2022-07-05T05:49:18;4.40;;;2.90;;
10059;SDS011;5069;49.306;8.636;2022-07-05T05:52:20;8.97;;;2.97;;
10059;SDS011;5069;49.306;8.636;2022-07-05T05:55:22;3.93;;;2.33;;
10059;SDS011;5069;49.306;8.636;2022-07-05T05:58:24;4.93;;;2.60;;
10059;SDS011;5069;49.306;8.636;2022-07-05T06:01:26;5.27;;;2.90;;
10059;SDS011;5069;49.306;8.636;2022-07-05T06:04:27;5.07;;;2.90;;
10059;SDS011;5069;49.306;8.636;2022-07-05T06:07:29;6.97;;;2.80;;
10059;SDS011;5069;49.306;8.636;2022-07-05T06:10:31;7.43;;;2.50;;
10059;SDS011;5069;49.306;8.636;2022-07-05T06:13:34;5.10;;;2.30;;
10059;SDS011;5069;49.306;8.636;2022-07-05T06:16:36;3.93;;;2.17;;
10059;SDS011;5069;49.306;8.636;2022-07-05T06:19:37;2.33;;;2.00;;
10059;SDS011;5069;49.306;8.636;2022-07-05T06:22:39;3.07;;;1.80;;
10059;SDS011;5069;49.306;8.636;2022-07-05T06:25:41;9.80;;;2.30;;
10059;SDS011;5069;49.306;8.636;2022-07-05T06:28:42;6.43;;;2.10;;
10059;SDS011;5069;49.306;8.636;2022-07-05T06:31:44;3.87;;;2.00;;
10059;SDS011;5069;49.306;8.636;2022-07-05T06:34:45;4.17;;;2.00;;
10059;SDS011;5069;49.306;8.636;2022-07-05T06:37:48;4.13;;;1.90;;
10059;SDS011;5069;49.306;8.636;2022-07-05T06:40:53;4.20;;;2.20;;
10059;SDS011;5069;49.306;8.636;2022-07-05T06:43:55;5.03;;;2.00;;
10059;SDS011;5069;49.306;8.636;2022-07-05T06:47:16;2.67;;;2.07;;
10059;SDS011;5069;49.306;8.636;2022-07-05T06:50:18;3.17;;;1.83;;
10059;SDS011;5069;49.306;8.636;2022-07-05T06:53:19;7.07;;;1.80;;
10059;SDS011;5069;49.306;8.636;2022-07-05T06:56:21;3.97;;;1.60;;
10059;SDS011;5069;49.306;8.636;2022-07-05T06:59:22;3.00;;;1.60;;
10059;SDS011;5069;49.306;8.636;2022-07-05T07:02:43;5.17;;;1.60;;
10059;SDS011;5069;49.306;8.636;2022-07-05T07:05:45;4.70;;;1.70;;
10059;SDS011;5069;49.306;8.636;2022-07-05T07:09:03;2.30;;;1.57;;
10059;SDS011;5069;49.306;8.636;2022-07-05T07:12:21;5.10;;;1.83;;
10059;SDS011;5069;49.306;8.636;2022-07-05T07:15:23;3.23;;;1.70;;
10059;SDS011;5069;49.306;8.636;2022-07-05T07:18:25;6.93;;;1.80;;
10059;SDS011;5069;49.306;8.636;2022-07-05T07:21:27;3.47;;;1.60;;
10059;SDS011;5069;49.306;8.636;2022-07-05T07:24:29;3.90;;;1.50;;
10059;SDS011;5069;49.306;8.636;2022-07-05T07:27:30;2.33;;;1.53;;
10059;SDS011;5069;49.306;8.636;2022-07-05T07:30:32;1.87;;;1.50;;
10059;SDS011;5069;49.306;8.636;2022-07-05T07:33:34;4.80;;;1.67;;
10059;SDS011;5069;49.306;8.636;2022-07-05T07:36:45;2.30;;;1.40;;
10059;SDS011;5069;49.306;8.636;2022-07-05T07:39:47;5.50;;;1.50;;
10059;SDS011;5069;49.306;8.636;2022-07-05T07:42:48;6.77;;;1.50;;
10059;SDS011;5069;49.306;8.636;2022-07-05T07:45:49;5.33;;;1.50;;
10059;SDS011;5069;49.306;8.636;2022-07-05T07:48:51;4.07;;;1.77;;
10059;SDS011;5069;49.306;8.636;2022-07-05T07:51:52;2.57;;;1.43;;
10059;SDS011;5069;49.306;8.636;2022-07-05T07:54:54;3.97;;;1.63;;
10059;SDS011;5069;49.306;8.636;2022-07-05T07:57:55;3.10;;;1.20;;
10059;SDS011;5069;49.306;8.636;2022-07-05T08:00:57;4.97;;;1.50;;
10059;SDS011;5069;49.306;8.636;2022-07-05T08:03:58;6.97;;;1.50;;
10059;SDS011;5069;49.306;8.636;2022-07-05T08:07:00;3.53;;;1.43;;
10059;SDS011;5069;49.306;8.636;2022-07-05T08:10:02;3.60;;;1.40;;
10059;SDS011;5069;49.306;8.636;2022-07-05T08:13:05;6.67;;;1.53;;
10059;SDS011;5069;49.306;8.636;2022-07-05T08:16:07;4.40;;;1.73;;
10059;SDS011;5069;49.306;8.636;2022-07-05T08:19:10;3.43;;;1.50;;
10059;SDS011;5069;49.306;8.636;2022-07-05T08:22:30;3.00;;;1.63;;
10059;SDS011;5069;49.306;8.636;2022-07-05T08:25:32;3.93;;;1.70;;
10059;SDS011;5069;49.306;8.636;2022-07-05T08:28:33;7.97;;;1.80;;
10059;SDS011;5069;49.306;8.636;2022-07-05T08:31:55;7.60;;;1.70;;
10059;SDS011;5069;49.306;8.636;2022-07-05T08:34:56;5.07;;;1.77;;
10059;SDS011;5069;49.306;8.636;2022-07-05T08:37:58;3.03;;;1.43;;
10059;SDS011;5069;49.306;8.636;2022-07-05T08:40:59;2.23;;;1.80;;
10059;SDS011;5069;49.306;8.636;2022-07-05T08:44:03;3.67;;;1.50;;
10059;SDS011;5069;49.306;8.636;2022-07-05T08:47:08;4.47;;;1.47;;
10059;SDS011;5069;49.306;8.636;2022-07-05T08:50:11;3.43;;;1.80;;
10059;SDS011;5069;49.306;8.636;2022-07-05T08:53:15;2.13;;;1.50;;
10059;SDS011;5069;49.306;8.636;2022-07-05T08:56:17;3.57;;;1.30;;
10059;SDS011;5069;49.306;8.636;2022-07-05T08:59:39;3.67;;;1.50;;
10059;SDS011;5069;49.306;8.636;2022-07-05T09:02:41;3.43;;;1.30;;
10059;SDS011;5069;49.306;8.636;2022-07-05T09:05:43;2.50;;;1.40;;
10059;SDS011;5069;49.306;8.636;2022-07-05T09:08:45;2.50;;;1.57;;
10059;SDS011;5069;49.306;8.636;2022-07-05T09:11:48;14.27;;;1.87;;
10059;SDS011;5069;49.306;8.636;2022-07-05T09:15:10;2.57;;;1.30;;
10059;SDS011;5069;49.306;8.636;2022-07-05T09:18:12;4.20;;;1.53;;
10059;SDS011;5069;49.306;8.636;2022-07-05T09:21:20;4.23;;;1.20;;
10059;SDS011;5069;49.306;8.636;2022-07-05T09:24:23;3.97;;;1.50;;
10059;SDS011;5069;49.306;8.636;2022-07-05T09:27:25;3.80;;;1.30;;
10059;SDS011;5069;49.306;8.636;2022-07-05T09:30:27;5.70;;;1.73;;
10059;SDS011;5069;49.306;8.636;2022-07-05T09:33:34;7.47;;;1.50;;
10059;SDS011;5069;49.306;8.636;2022-07-05T09:36:51;3.70;;;1.65;;
10059;SDS011;5069;49.306;8.636;2022-07-05T09:40:00;3.73;;;1.50;;
10059;SDS011;5069;49.306;8.636;2022-07-05T09:43:11;1.40;;;1.03;;
10059;SDS011;5069;49.306;8.636;2022-07-05T09:46:16;3.23;;;1.47;;
10059;SDS011;5069;49.306;8.636;2022-07-05T09:49:30;3.50;;;1.10;;
10059;SDS011;5069;49.306;8.636;2022-07-05T09:52:53;2.43;;;1.23;;
10059;SDS011;5069;49.306;8.636;2022-07-05T09:56:01;3.50;;;1.30;;
10059;SDS011;5069;49.306;8.636;2022-07-05T09:59:16;2.97;;;1.03;;
10059;SDS011;5069;49.306;8.636;2022-07-05T10:02:33;3.05;;;1.15;;
10059;SDS011;5069;49.306;8.636;2022-07-05T10:05:42;2.10;;;1.20;;
10059;SDS011;5069;49.306;8.636;2022-07-05T10:08:43;2.20;;;1.35;;
10059;SDS011;5069;49.306;8.636;2022-07-05T10:11:45;2.05;;;1.13;;
10059;SDS011;5069;49.306;8.636;2022-07-05T10:14:47;1.83;;;1.00;;
10059;SDS011;5069;49.306;8.636;2022-07-05T10:20:59;2.15;;;1.30;;
10059;SDS011;5069;49.306;8.636;2022-07-05T10:24:03;2.45;;;1.25;;
10059;SDS011;5069;49.306;8.636;2022-07-05T10:27:05;3.38;;;1.40;;
10059;SDS011;5069;49.306;8.636;2022-07-05T10:30:09;1.40;;;1.25;;
10059;SDS011;5069;49.306;8.636;2022-07-05T10:33:13;3.90;;;1.35;;
10059;SDS011;5069;49.306;8.636;2022-07-05T10:36:16;2.65;;;1.23;;
10059;SDS011;5069;49.306;8.636;2022-07-05T10:39:17;2.55;;;1.10;;
10059;SDS011;5069;49.306;8.636;2022-07-05T10:42:20;2.22;;;1.33;;
10059;SDS011;5069;49.306;8.636;2022-07-05T10:45:36;1.85;;;1.30;;
10059;SDS011;5069;49.306;8.636;2022-07-05T10:48:39;4.75;;;1.60;;
10059;SDS011;5069;49.306;8.636;2022-07-05T10:51:41;1.75;;;1.20;;
10059;SDS011;5069;49.306;8.636;2022-07-05T10:58:25;2.53;;;1.30;;
10059;SDS011;5069;49.306;8.636;2022-07-05T11:01:31;5.63;;;1.23;;
10059;SDS011;5069;49.306;8.636;2022-07-05T11:04:34;3.00;;;1.27;;
10059;SDS011;5069;49.306;8.636;2022-07-05T11:07:56;3.83;;;1.23;;
10059;SDS011;5069;49.306;8.636;2022-07-05T11:11:16;1.95;;;1.42;;
10059;SDS011;5069;49.306;8.636;2022-07-05T11:14:30;3.05;;;1.40;;
10059;SDS011;5069;49.306;8.636;2022-07-05T11:17:33;2.97;;;1.40;;
10059;SDS011;5069;49.306;8.636;2022-07-05T11:21:15;1.75;;;1.20;;
10059;SDS011;5069;49.306;8.636;2022-07-05T11:24:18;1.55;;;1.20;;
10059;SDS011;5069;49.306;8.636;2022-07-05T11:27:22;2.05;;;1.20;;
10059;SDS011;5069;49.306;8.636;2022-07-05T11:30:24;1.75;;;1.27;;
10059;SDS011;5069;49.306;8.636;2022-07-05T11:33:27;2.60;;;1.30;;
10059;SDS011;5069;49.306;8.636;2022-07-05T11:36:34;1.20;;;1.10;;
10059;SDS011;5069;49.306;8.636;2022-07-05T11:39:35;3.80;;;1.42;;
10059;SDS011;5069;49.306;8.636;2022-07-05T11:42:38;5.10;;;1.40;;
10059;SDS011;5069;49.306;8.636;2022-07-05T11:45:47;2.15;;;1.40;;
10059;SDS011;5069;49.306;8.636;2022-07-05T11:48:57;4.03;;;1.20;;
10059;SDS011;5069;49.306;8.636;2022-07-05T11:52:01;2.60;;;1.45;;
10059;SDS011;5069;49.306;8.636;2022-07-05T11:55:04;4.95;;;1.40;;
10059;SDS011;5069;49.306;8.636;2022-07-05T11:58:08;5.82;;;1.63;;
10059;SDS011;5069;49.306;8.636;2022-07-05T12:01:10;2.65;;;1.40;;
10059;SDS011;5069;49.306;8.636;2022-07-05T12:04:20;3.25;;;1.10;;
10059;SDS011;5069;49.306;8.636;2022-07-05T12:07:47;1.48;;;1.08;;
10059;SDS011;5069;49.306;8.636;2022-07-05T12:10:51;4.55;;;1.25;;
10059;SDS011;5069;49.306;8.636;2022-07-05T12:14:23;3.05;;;1.20;;
10059;SDS011;5069;49.306;8.636;2022-07-05T12:17:25;1.48;;;1.38;;
10059;SDS011;5069;49.306;8.636;2022-07-05T12:20:27;2.45;;;1.10;;
10059;SDS011;5069;49.306;8.636;2022-07-05T12:23:29;4.03;;;1.10;;
10059;SDS011;5069;49.306;8.636;2022-07-05T12:26:30;2.78;;;1.10;;
10059;SDS011;5069;49.306;8.636;2022-07-05T12:29:32;4.15;;;1.27;;
10059;SDS011;5069;49.306;8.636;2022-07-05T12:32:52;2.25;;;1.38;;
10059;SDS011;5069;49.306;8.636;2022-07-05T12:36:00;1.60;;;1.10;;
10059;SDS011;5069;49.306;8.636;2022-07-05T12:39:01;2.28;;;1.30;;
10059;SDS011;5069;49.306;8.636;2022-07-05T12:42:03;3.38;;;1.20;;
10059;SDS011;5069;49.306;8.636;2022-07-05T12:45:11;3.97;;;1.33;;
10059;SDS011;5069;49.306;8.636;2022-07-05T12:48:14;3.15;;;1.50;;
10059;SDS011;5069;49.306;8.636;2022-07-05T12:51:16;2.65;;;1.25;;
10059;SDS011;5069;49.306;8.636;2022-07-05T12:54:33;2.45;;;1.45;;
10059;SDS011;5069;49.306;8.636;2022-07-05T12:57:53;3.25;;;1.25;;
10059;SDS011;5069;49.306;8.636;2022-07-05T13:01:17;2.22;;;1.08;;
10059;SDS011;5069;49.306;8.636;2022-07-05T13:04:23;1.63;;;1.08;;
10059;SDS011;5069;49.306;8.636;2022-07-05T13:07:25;5.13;;;1.20;;
10059;SDS011;5069;49.306;8.636;2022-07-05T13:10:45;4.18;;;1.25;;
10059;SDS011;5069;49.306;8.636;2022-07-05T13:13:47;1.17;;;1.08;;
10059;SDS011;5069;49.306;8.636;2022-07-05T13:16:49;2.25;;;1.20;;
10059;SDS011;5069;49.306;8.636;2022-07-05T13:19:51;2.95;;;1.10;;
10059;SDS011;5069;49.306;8.636;2022-07-05T13:22:53;2.20;;;1.20;;
10059;SDS011;5069;49.306;8.636;2022-07-05T13:25:54;2.88;;;1.30;;
10059;SDS011;5069;49.306;8.636;2022-07-05T13:28:57;1.30;;;0.93;;
10059;SDS011;5069;49.306;8.636;2022-07-05T13:31:59;2.60;;;1.23;;
10059;SDS011;5069;49.306;8.636;2022-07-05T13:35:00;1.50;;;1.13;;
10059;SDS011;5069;49.306;8.636;2022-07-05T13:38:02;2.20;;;1.38;;
10059;SDS011;5069;49.306;8.636;2022-07-05T13:41:04;2.03;;;0.90;;
10059;SDS011;5069;49.306;8.636;2022-07-05T13:44:05;2.03;;;1.20;;
10059;SDS011;5069;49.306;8.636;2022-07-05T13:47:07;3.70;;;1.20;;
10059;SDS011;5069;49.306;8.636;2022-07-05T13:50:08;3.72;;;1.58;;
10059;SDS011;5069;49.306;8.636;2022-07-05T13:53:28;1.40;;;1.20;;
10059;SDS011;5069;49.306;8.636;2022-07-05T13:56:30;3.85;;;1.30;;
10059;SDS011;5069;49.306;8.636;2022-07-05T13:59:33;4.22;;;1.20;;
10059;SDS011;5069;49.306;8.636;2022-07-05T14:02:34;5.32;;;1.40;;
10059;SDS011;5069;49.306;8.636;2022-07-05T14:05:36;2.75;;;1.15;;
10059;SDS011;5069;49.306;8.636;2022-07-05T14:08:37;2.08;;;1.20;;
10059;SDS011;5069;49.306;8.636;2022-07-05T14:11:39;2.25;;;1.02;;
10059;SDS011;5069;49.306;8.636;2022-07-05T14:14:41;1.48;;;1.00;;
10059;SDS011;5069;49.306;8.636;2022-07-05T14:17:42;1.92;;;1.20;;
10059;SDS011;5069;49.306;8.636;2022-07-05T14:20:45;2.40;;;1.27;;
10059;SDS011;5069;49.306;8.636;2022-07-05T14:23:47;2.75;;;1.10;;
10059;SDS011;5069;49.306;8.636;2022-07-05T14:26:49;2.00;;;1.17;;
10059;SDS011;5069;49.306;8.636;2022-07-05T14:29:51;5.68;;;1.23;;
10059;SDS011;5069;49.306;8.636;2022-07-05T14:32:52;1.65;;;1.45;;
10059;SDS011;5069;49.306;8.636;2022-07-05T14:35:54;2.67;;;1.10;;
10059;SDS011;5069;49.306;8.636;2022-07-05T14:38:55;3.28;;;1.13;;
10059;SDS011;5069;49.306;8.636;2022-07-05T14:41:57;3.00;;;1.20;;
10059;SDS011;5069;49.306;8.636;2022-07-05T14:44:58;1.58;;;1.10;;
10059;SDS011;5069;49.306;8.636;2022-07-05T14:48:00;3.42;;;1.33;;
10059;SDS011;5069;49.306;8.636;2022-07-05T14:51:01;2.33;;;1.20;;
10059;SDS011;5069;49.306;8.636;2022-07-05T14:54:03;2.97;;;1.20;;
10059;SDS011;5069;49.306;8.636;2022-07-05T14:57:05;2.45;;;1.27;;
10059;SDS011;5069;49.306;8.636;2022-07-05T15:00:07;2.10;;;1.23;;
10059;SDS011;5069;49.306;8.636;2022-07-05T15:03:11;2.47;;;1.10;;
10059;SDS011;5069;49.306;8.636;2022-07-05T15:06:12;2.33;;;1.30;;
10059;SDS011;5069;49.306;8.636;2022-07-05T15:09:14;1.83;;;1.00;;
10059;SDS011;5069;49.306;8.636;2022-07-05T15:12:15;1.98;;;1.10;;
10059;SDS011;5069;49.306;8.636;2022-07-05T15:15:18;3.70;;;1.30;;
10059;SDS011;5069;49.306;8.636;2022-07-05T15:18:19;2.15;;;1.20;;
10059;SDS011;5069;49.306;8.636;2022-07-05T15:21:21;3.00;;;1.10;;
10059;SDS011;5069;49.306;8.636;2022-07-05T15:24:23;1.30;;;1.10;;
10059;SDS011;5069;49.306;8.636;2022-07-05T15:27:24;2.45;;;1.10;;
10059;SDS011;5069;49.306;8.636;2022-07-05T15:30:27;1.75;;;1.38;;
10059;SDS011;5069;49.306;8.636;2022-07-05T15:33:29;6.07;;;1.10;;
10059;SDS011;5069;49.306;8.636;2022-07-05T15:36:31;1.70;;;1.27;;
10059;SDS011;5069;49.306;8.636;2022-07-05T15:39:33;4.85;;;1.13;;
10059;SDS011;5069;49.306;8.636;2022-07-05T15:42:35;1.88;;;1.15;;
10059;SDS011;5069;49.306;8.636;2022-07-05T15:45:37;1.40;;;1.20;;
10059;SDS011;5069;49.306;8.636;2022-07-05T15:48:38;1.27;;;1.10;;
10059;SDS011;5069;49.306;8.636;2022-07-05T15:51:40;2.25;;;1.00;;
10059;SDS011;5069;49.306;8.636;2022-07-05T15:54:42;3.05;;;1.30;;
10059;SDS011;5069;49.306;8.636;2022-07-05T15:57:43;1.30;;;1.17;;
10059;SDS011;5069;49.306;8.636;2022-07-05T16:00:45;1.05;;;0.93;;
10059;SDS011;5069;49.306;8.636;2022-07-05T16:03:46;3.00;;;1.70;;
10059;SDS011;5069;49.306;8.636;2022-07-05T16:06:48;1.27;;;1.17;;
10059;SDS011;5069;49.306;8.636;2022-07-05T16:09:50;1.73;;;1.00;;
10059;SDS011;5069;49.306;8.636;2022-07-05T16:13:14;2.10;;;1.40;;
10059;SDS011;5069;49.306;8.636;2022-07-05T16:16:19;2.40;;;1.10;;
10059;SDS011;5069;49.306;8.636;2022-07-05T16:19:20;3.75;;;1.25;;
10059;SDS011;5069;49.306;8.636;2022-07-05T16:22:22;1.77;;;1.10;;
10059;SDS011;5069;49.306;8.636;2022-07-05T16:25:24;2.90;;;1.45;;
10059;SDS011;5069;49.306;8.636;2022-07-05T16:28:26;1.55;;;1.08;;
10059;SDS011;5069;49.306;8.636;2022-07-05T16:31:28;2.25;;;1.20;;
10059;SDS011;5069;49.306;8.636;2022-07-05T16:34:31;1.30;;;1.20;;
10059;SDS011;5069;49.306;8.636;2022-07-05T16:37:32;2.28;;;1.00;;
10059;SDS011;5069;49.306;8.636;2022-07-05T16:40:33;6.97;;;1.35;;
10059;SDS011;5069;49.306;8.636;2022-07-05T16:43:35;3.78;;;1.10;;
10059;SDS011;5069;49.306;8.636;2022-07-05T16:46:40;1.23;;;1.00;;
10059;SDS011;5069;49.306;8.636;2022-07-05T16:49:42;3.42;;;1.17;;
10059;SDS011;5069;49.306;8.636;2022-07-05T16:52:43;3.28;;;1.40;;
10059;SDS011;5069;49.306;8.636;2022-07-05T16:55:45;2.42;;;1.08;;
10059;SDS011;5069;49.306;8.636;2022-07-05T16:58:47;1.60;;;1.30;;
10059;SDS011;5069;49.306;8.636;2022-07-05T17:01:50;1.67;;;1.20;;
10059;SDS011;5069;49.306;8.636;2022-07-05T17:04:52;1.50;;;1.15;;
10059;SDS011;5069;49.306;8.636;2022-07-05T17:07:54;2.40;;;1.10;;
10059;SDS011;5069;49.306;8.636;2022-07-05T17:10:56;2.28;;;1.10;;
10059;SDS011;5069;49.306;8.636;2022-07-05T17:13:58;3.53;;;1.30;;
10059;SDS011;5069;49.306;8.636;2022-07-05T17:17:00;2.05;;;1.10;;
10059;SDS011;5069;49.306;8.636;2022-07-05T17:20:01;4.95;;;1.30;;
10059;SDS011;5069;49.306;8.636;2022-07-05T17:23:03;1.80;;;1.30;;
10059;SDS011;5069;49.306;8.636;2022-07-05T17:26:04;3.90;;;1.50;;
10059;SDS011;5069;49.306;8.636;2022-07-05T17:29:07;2.45;;;1.00;;
10059;SDS011;5069;49.306;8.636;2022-07-05T17:32:09;2.97;;;1.23;;
10059;SDS011;5069;49.306;8.636;2022-07-05T17:35:10;2.65;;;1.40;;
10059;SDS011;5069;49.306;8.636;2022-07-05T17:38:12;1.77;;;1.02;;
10059;SDS011;5069;49.306;8.636;2022-07-05T17:41:13;1.30;;;1.05;;
10059;SDS011;5069;49.306;8.636;2022-07-05T17:44:16;1.42;;;1.00;;
10059;SDS011;5069;49.306;8.636;2022-07-05T17:47:17;1.85;;;1.20;;
10059;SDS011;5069;49.306;8.636;2022-07-05T17:50:19;2.08;;;1.00;;
10059;SDS011;5069;49.306;8.636;2022-07-05T17:53:34;1.58;;;0.95;;
10059;SDS011;5069;49.306;8.636;2022-07-05T17:56:36;2.85;;;1.10;;
10059;SDS011;5069;49.306;8.636;2022-07-05T17:59:37;1.55;;;1.10;;
10059;SDS011;5069;49.306;8.636;2022-07-05T18:02:39;1.58;;;1.10;;
10059;SDS011;5069;49.306;8.636;2022-07-05T18:05:40;1.98;;;1.02;;
10059;SDS011;5069;49.306;8.636;2022-07-05T18:08:42;2.55;;;1.30;;
10059;SDS011;5069;49.306;8.636;2022-07-05T18:11:44;1.20;;;0.93;;
10059;SDS011;5069;49.306;8.636;2022-07-05T18:14:45;3.33;;;1.40;;
10059;SDS011;5069;49.306;8.636;2022-07-05T18:17:47;2.20;;;0.90;;
10059;SDS011;5069;49.306;8.636;2022-07-05T18:20:49;2.72;;;1.17;;
10059;SDS011;5069;49.306;8.636;2022-07-05T18:23:56;1.92;;;1.10;;
10059;SDS011;5069;49.306;8.636;2022-07-05T18:26:58;1.63;;;1.13;;
10059;SDS011;5069;49.306;8.636;2022-07-05T18:30:06;2.63;;;1.00;;
10059;SDS011;5069;49.306;8.636;2022-07-05T18:33:08;3.08;;;1.33;;
10059;SDS011;5069;49.306;8.636;2022-07-05T18:36:09;2.45;;;1.27;;
10059;SDS011;5069;49.306;8.636;2022-07-05T18:39:11;4.97;;;1.33;;
10059;SDS011;5069;49.306;8.636;2022-07-05T18:42:13;1.50;;;1.00;;
10059;SDS011;5069;49.306;8.636;2022-07-05T18:45:15;3.58;;;1.55;;
10059;SDS011;5069;49.306;8.636;2022-07-05T18:48:16;2.40;;;1.25;;
10059;SDS011;5069;49.306;8.636;2022-07-05T18:51:18;5.53;;;1.40;;